createdAt,value
2023-04-12T00:00:39.474Z,10.05
2023-04-12T00:03:11.833Z,9.23
2023-04-12T00:05:48.287Z,7.85
2023-04-12T00:08:19.507Z,8.88
2023-04-12T00:10:50.765Z,11.63
2023-04-12T00:13:22.576Z,13.45
2023-04-12T00:15:53.963Z,9.95
2023-04-12T00:18:26.748Z,11.07
2023-04-12T00:20:58.231Z,8.60
2023-04-12T00:23:29.579Z,9.32
2023-04-12T00:26:00.854Z,8.82
2023-04-12T00:28:32.375Z,10.60
2023-04-12T00:31:04.384Z,9.05
2023-04-12T00:33:38.028Z,9.55
2023-04-12T00:36:09.720Z,12.85
2023-04-12T00:38:41.391Z,9.52
2023-04-12T00:41:12.666Z,8.85
2023-04-12T00:43:44.226Z,8.35
2023-04-12T00:46:15.567Z,6.15
2023-04-12T00:48:49.478Z,8.75
2023-04-12T00:51:23.913Z,9.45
2023-04-12T00:53:57.119Z,10.80
2023-04-12T00:56:30.022Z,7.93
2023-04-12T00:59:01.697Z,7.55
2023-04-12T01:01:33.491Z,8.88
2023-04-12T01:04:06.090Z,9.40
2023-04-12T01:06:44.173Z,7.10
2023-04-12T01:09:31.635Z,12.15
2023-04-12T01:12:23.529Z,7.85
2023-04-12T01:15:12.780Z,9.07
2023-04-12T01:18:07.126Z,7.03
2023-04-12T01:20:49.815Z,8.30
2023-04-12T01:23:42.196Z,8.10
2023-04-12T01:26:34.599Z,9.40
2023-04-12T01:29:13.351Z,9.90
2023-04-12T01:31:53.251Z,9.88
2023-04-12T01:34:33.739Z,10.45
2023-04-12T01:37:12.561Z,10.07
2023-04-12T01:39:45.827Z,9.90
2023-04-12T01:42:22.043Z,11.75
2023-04-12T01:44:53.069Z,10.63
2023-04-12T01:47:24.473Z,13.02
2023-04-12T01:50:21.317Z,13.82
2023-04-12T01:53:04.510Z,9.07
2023-04-12T01:55:36.902Z,13.23
2023-04-12T01:58:08.896Z,12.55
2023-04-12T02:00:40.460Z,8.85
2023-04-12T02:03:13.785Z,14.00
2023-04-12T02:05:45.596Z,8.77
2023-04-12T02:08:17.352Z,8.77
2023-04-12T02:10:49.790Z,10.15
2023-04-12T02:13:21.837Z,8.18
2023-04-12T02:15:56.417Z,9.07
2023-04-12T02:18:29.328Z,7.10
2023-04-12T02:21:01.519Z,12.38
2023-04-12T02:23:32.391Z,10.98
2023-04-12T02:26:03.538Z,11.35
2023-04-12T02:28:36.073Z,11.20
2023-04-12T02:31:08.455Z,10.50
2023-04-12T02:33:42.510Z,11.70
2023-04-12T02:36:14.308Z,8.73
2023-04-12T02:38:45.366Z,9.45
2023-04-12T02:41:21.420Z,8.48
2023-04-12T02:43:53.472Z,8.75
2023-04-12T02:46:28.866Z,10.05
2023-04-12T02:49:02.454Z,8.57
2023-04-12T02:51:41.419Z,9.52
2023-04-12T02:54:13.841Z,7.82
2023-04-12T02:56:57.606Z,8.32
2023-04-12T02:59:45.565Z,10.13
2023-04-12T03:02:25.452Z,10.07
2023-04-12T03:05:01.745Z,8.35
2023-04-12T03:07:41.625Z,9.35
2023-04-12T03:10:14.460Z,10.75
2023-04-12T03:12:50.664Z,8.07
2023-04-12T03:15:25.111Z,8.23
2023-04-12T03:17:57.204Z,7.63
2023-04-12T03:20:34.962Z,8.73
2023-04-12T03:23:10.074Z,8.93
2023-04-12T03:25:46.391Z,10.27
2023-04-12T03:28:44.484Z,8.02
2023-04-12T03:31:15.752Z,7.63
2023-04-12T03:33:49.898Z,10.48
2023-04-12T03:36:25.699Z,9.80
2023-04-12T03:39:06.523Z,7.22
2023-04-12T03:41:41.511Z,8.90
2023-04-12T03:44:13.068Z,6.80
2023-04-12T03:46:45.673Z,7.63
2023-04-12T03:49:18.291Z,9.25
2023-04-12T03:51:52.404Z,7.50
2023-04-12T03:54:24.483Z,7.53
2023-04-12T03:57:05.206Z,9.55
2023-04-12T03:59:47.014Z,7.68
2023-04-12T04:02:22.106Z,7.03
2023-04-12T04:04:57.483Z,6.03
2023-04-12T04:07:30.989Z,6.30
2023-04-12T04:12:37.803Z,7.55
2023-04-12T04:15:14.062Z,7.43
2023-04-12T04:17:46.186Z,10.20
2023-04-12T04:20:19.629Z,8.75
2023-04-12T04:22:55.042Z,6.40
2023-04-12T04:25:35.202Z,9.35
2023-04-12T04:28:09.829Z,9.98
2023-04-12T04:30:43.498Z,7.00
2023-04-12T04:33:17.924Z,7.45
2023-04-12T04:35:49.971Z,5.80
2023-04-12T04:38:30.442Z,6.45
2023-04-12T04:41:10.690Z,7.63
2023-04-12T04:43:56.941Z,7.10
2023-04-12T04:46:32.559Z,7.05
2023-04-12T04:49:08.332Z,9.05
2023-04-12T04:51:39.838Z,10.98
2023-04-12T04:54:15.410Z,8.60
2023-04-12T04:56:47.946Z,11.77
2023-04-12T04:59:21.653Z,9.18
2023-04-12T05:01:54.322Z,12.90
2023-04-12T05:04:25.488Z,9.80
2023-04-12T05:06:57.388Z,10.75
2023-04-12T05:09:30.029Z,8.93
2023-04-12T05:12:01.543Z,8.77
2023-04-12T05:14:45.451Z,11.57
2023-04-12T05:17:19.062Z,7.53
2023-04-12T05:19:51.133Z,10.07
2023-04-12T05:24:55.816Z,12.77
2023-04-12T05:27:29.952Z,11.32
2023-04-12T05:30:02.990Z,11.43
2023-04-12T05:32:34.355Z,11.90
2023-04-12T05:35:05.906Z,10.65
2023-04-12T05:37:40.165Z,9.05
2023-04-12T05:40:11.773Z,10.77
2023-04-12T05:45:13.647Z,9.73
2023-04-12T05:47:47.411Z,10.45
2023-04-12T05:50:19.074Z,11.80
2023-04-12T05:52:50.625Z,10.57
2023-04-12T05:55:24.362Z,9.30
2023-04-12T05:57:55.831Z,10.48
2023-04-12T06:00:27.759Z,10.15
2023-04-12T06:03:00.216Z,12.57
2023-04-12T06:05:31.449Z,11.70
2023-04-12T06:08:03.432Z,12.88
2023-04-12T06:10:34.856Z,11.80
2023-04-12T06:13:07.143Z,11.15
2023-04-12T06:15:38.693Z,11.18
2023-04-12T06:20:44.265Z,10.27
2023-04-12T06:23:16.676Z,10.88
2023-04-12T06:28:19.114Z,9.38
2023-04-12T06:30:52.345Z,10.75
2023-04-12T06:33:26.209Z,10.05
2023-04-12T06:35:57.721Z,10.13
2023-04-12T06:38:29.450Z,11.93
2023-04-12T06:41:00.625Z,9.82
2023-04-12T06:43:31.750Z,9.57
2023-04-12T06:46:04.466Z,9.98
2023-04-12T06:48:35.710Z,12.93
2023-04-12T06:51:07.053Z,12.85
2023-04-12T06:53:40.605Z,10.23
2023-04-12T06:56:11.861Z,10.90
2023-04-12T06:58:43.036Z,11.45
2023-04-12T07:01:15.940Z,12.43
2023-04-12T07:03:47.485Z,9.98
2023-04-12T07:08:57.970Z,11.88
2023-04-12T07:11:30.255Z,13.02
2023-04-12T07:14:01.721Z,10.00
2023-04-12T07:16:34.222Z,9.50
2023-04-12T07:19:05.364Z,8.40
2023-04-12T07:21:36.457Z,14.05
2023-04-12T07:24:07.723Z,16.35
2023-04-12T07:26:39.078Z,17.85
2023-04-12T07:29:10.418Z,21.40
2023-04-12T07:31:43.266Z,15.95
2023-04-12T07:34:15.259Z,13.35
2023-04-12T07:36:46.938Z,12.35
2023-04-12T07:39:19.259Z,13.43
2023-04-12T07:41:51.417Z,9.70
2023-04-12T07:44:22.527Z,11.18
2023-04-12T07:46:54.182Z,10.82
2023-04-12T07:49:25.223Z,12.70
2023-04-12T07:51:56.227Z,12.25
2023-04-12T07:54:30.554Z,12.00
2023-04-12T07:57:04.558Z,10.00
2023-04-12T07:59:36.089Z,10.27
2023-04-12T08:02:07.929Z,13.10
2023-04-12T08:04:39.745Z,14.35
2023-04-12T08:07:11.064Z,27.38
2023-04-12T08:09:42.367Z,26.85
2023-04-12T08:12:13.617Z,107.70
2023-04-12T08:14:45.289Z,161.65
2023-04-12T08:17:18.170Z,103.63
2023-04-12T08:19:49.878Z,319.17
2023-04-12T08:22:21.066Z,317.55
2023-04-12T08:24:52.403Z,164.82
2023-04-12T08:27:23.490Z,261.73
2023-04-12T08:29:54.778Z,269.70
2023-04-12T08:34:56.978Z,216.95
2023-04-12T08:37:28.374Z,177.63
2023-04-12T08:40:05.665Z,147.85
2023-04-12T08:42:40.631Z,110.40
2023-04-12T08:45:13.759Z,51.10
2023-04-12T08:47:46.285Z,24.10
2023-04-12T08:50:18.163Z,50.60
2023-04-12T08:52:52.058Z,33.70
2023-04-12T08:55:23.652Z,18.45
2023-04-12T08:57:58.570Z,23.98
2023-04-12T09:00:31.906Z,16.83
2023-04-12T09:03:06.314Z,15.93
2023-04-12T09:05:37.640Z,12.70
2023-04-12T09:08:09.090Z,13.30
2023-04-12T09:10:41.130Z,13.90
2023-04-12T09:13:12.568Z,12.38
2023-04-12T09:15:53.437Z,13.13
2023-04-12T09:18:25.875Z,14.53
2023-04-12T09:21:10.864Z,25.73
2023-04-12T09:23:41.989Z,20.02
2023-04-12T09:26:30.586Z,24.13
2023-04-12T09:29:02.516Z,39.60
2023-04-12T09:31:33.885Z,61.55
2023-04-12T09:34:12.655Z,55.25
2023-04-12T09:36:44.915Z,42.97
2023-04-12T09:39:16.313Z,45.35
2023-04-12T09:41:48.319Z,36.53
2023-04-12T09:44:40.312Z,34.03
2023-04-12T09:47:11.620Z,26.02
2023-04-12T09:49:44.664Z,26.80
2023-04-12T09:52:16.825Z,32.47
2023-04-12T09:54:50.236Z,27.55
2023-04-12T09:57:22.319Z,26.05
2023-04-12T09:59:53.997Z,23.42
2023-04-12T10:02:30.006Z,19.90
2023-04-12T10:05:01.491Z,16.92
2023-04-12T10:07:34.286Z,18.27
2023-04-12T10:10:06.597Z,17.23
2023-04-12T10:12:39.079Z,13.55
2023-04-12T10:15:14.877Z,14.20
2023-04-12T10:17:50.300Z,12.27
2023-04-12T10:20:24.686Z,14.52
2023-04-12T10:22:57.717Z,14.88
2023-04-12T10:28:21.056Z,15.02
2023-04-12T10:30:54.711Z,14.73
2023-04-12T10:33:30.117Z,14.77
2023-04-12T10:36:09.989Z,14.82
2023-04-12T10:38:54.027Z,10.85
2023-04-12T10:41:26.325Z,13.82
2023-04-12T10:44:30.121Z,12.85
2023-04-12T10:47:01.280Z,18.23
2023-04-12T10:49:33.865Z,27.15
2023-04-12T10:52:08.344Z,16.40
2023-04-12T10:54:40.061Z,15.98
2023-04-12T10:57:46.524Z,14.50
2023-04-12T11:00:18.296Z,13.30
2023-04-12T11:03:09.056Z,13.80
2023-04-12T11:06:13.109Z,13.50
2023-04-12T11:09:36.568Z,73.93
2023-04-12T11:12:10.246Z,63.13
2023-04-12T11:14:53.486Z,35.60
2023-04-12T11:17:28.900Z,31.15
2023-04-12T11:22:35.723Z,25.90
2023-04-12T11:25:08.031Z,27.98
2023-04-12T11:27:39.483Z,29.42
2023-04-12T11:30:11.988Z,27.77
2023-04-12T11:32:43.598Z,24.55
2023-04-12T11:35:25.637Z,21.33
2023-04-12T11:38:00.232Z,26.15
2023-04-12T11:40:31.621Z,16.70
2023-04-12T11:43:03.133Z,17.65
2023-04-12T11:45:36.037Z,21.63
2023-04-12T11:48:10.823Z,17.23
2023-04-12T11:50:43.111Z,19.00
2023-04-12T11:53:21.230Z,19.63
2023-04-12T11:55:53.439Z,20.17
2023-04-12T11:58:33.433Z,20.92
2023-04-12T12:01:05.560Z,20.90
2023-04-12T12:03:36.977Z,20.05
2023-04-12T12:06:10.018Z,15.52
2023-04-12T12:08:41.926Z,17.42
2023-04-12T12:11:13.096Z,13.43
2023-04-12T12:13:55.724Z,13.30
2023-04-12T12:16:29.328Z,14.40
2023-04-12T12:19:00.692Z,12.30
2023-04-12T12:21:32.979Z,16.23
2023-04-12T12:24:04.598Z,10.18
2023-04-12T12:26:35.690Z,10.75
2023-04-12T12:29:07.481Z,13.05
2023-04-12T12:31:39.755Z,12.63
2023-04-12T12:34:15.911Z,13.65
2023-04-12T12:36:46.853Z,13.38
2023-04-12T12:39:18.316Z,18.00
2023-04-12T12:41:57.752Z,12.00
2023-04-12T12:44:28.747Z,12.45
2023-04-12T12:49:45.124Z,11.63
2023-04-12T12:52:17.887Z,10.50
2023-04-12T12:54:49.318Z,12.35
2023-04-12T12:57:21.811Z,11.05
2023-04-12T12:59:53.287Z,10.48
2023-04-12T13:02:24.582Z,12.48
2023-04-12T13:04:56.526Z,8.98
2023-04-12T13:07:27.724Z,12.00
2023-04-12T13:09:59.043Z,10.10
2023-04-12T13:12:30.328Z,12.90
2023-04-12T13:15:17.308Z,10.13
2023-04-12T13:17:55.045Z,8.90
2023-04-12T13:20:26.765Z,10.07
2023-04-12T13:22:57.797Z,8.90
2023-04-12T13:25:29.305Z,8.70
2023-04-12T13:28:00.467Z,13.45
2023-04-12T13:30:31.526Z,9.93
2023-04-12T13:33:02.453Z,7.80
2023-04-12T13:35:33.952Z,11.30
2023-04-12T13:38:05.683Z,8.15
2023-04-12T13:40:37.429Z,7.50
2023-04-12T13:43:09.953Z,10.05
2023-04-12T13:45:41.200Z,8.65
2023-04-12T13:48:13.375Z,11.23
2023-04-12T13:53:15.631Z,9.68
2023-04-12T13:55:47.813Z,10.90
2023-04-12T13:58:20.166Z,8.77
2023-04-12T14:00:51.774Z,9.68
2023-04-12T14:03:23.833Z,10.95
2023-04-12T14:08:25.581Z,8.57
2023-04-12T14:10:57.221Z,7.30
2023-04-12T14:13:29.729Z,9.60
2023-04-12T14:16:00.923Z,11.40
2023-04-12T14:18:32.173Z,10.18
2023-04-12T14:21:04.810Z,16.42
2023-04-12T14:23:35.899Z,8.73
2023-04-12T14:26:07.378Z,10.82
2023-04-12T14:28:38.719Z,8.48
2023-04-12T14:31:09.988Z,10.18
2023-04-12T14:33:41.319Z,9.38
2023-04-12T14:36:12.965Z,9.30
2023-04-12T14:38:44.282Z,10.80
2023-04-12T14:41:15.456Z,10.48
2023-04-12T14:43:48.013Z,9.73
2023-04-12T14:46:19.663Z,8.32
2023-04-12T14:48:51.676Z,8.27
2023-04-12T14:51:23.138Z,8.13
2023-04-12T14:53:54.592Z,7.55
2023-04-12T14:56:29.649Z,13.95
2023-04-12T14:59:02.582Z,10.57
2023-04-12T15:04:05.712Z,15.73
2023-04-12T15:06:43.756Z,13.60
2023-04-12T15:09:17.207Z,11.93
2023-04-12T15:11:56.362Z,8.40
2023-04-12T15:14:27.645Z,10.75
2023-04-12T15:16:59.422Z,8.10
2023-04-12T15:19:30.573Z,8.55
2023-04-12T15:22:02.180Z,7.53
2023-04-12T15:27:05.901Z,8.70
2023-04-12T15:29:37.881Z,20.20
2023-04-12T15:32:10.337Z,10.93
2023-04-12T15:34:41.444Z,9.30
2023-04-12T15:37:16.162Z,12.70
2023-04-12T15:39:47.599Z,10.35
2023-04-12T15:42:19.369Z,14.77
2023-04-12T15:47:21.143Z,14.23
2023-04-12T15:49:55.963Z,12.00
2023-04-12T15:52:27.339Z,10.23
2023-04-12T15:54:58.557Z,18.38
2023-04-12T15:57:29.675Z,31.50
2023-04-12T16:00:01.389Z,29.30
2023-04-12T16:02:35.726Z,29.88
2023-04-12T16:07:41.865Z,35.55
2023-04-12T16:10:14.101Z,35.60
2023-04-12T16:12:46.239Z,19.38
2023-04-12T16:15:22.355Z,38.80
2023-04-12T16:17:55.850Z,39.33
2023-04-12T16:20:27.449Z,24.17
2023-04-12T16:23:00.259Z,15.75
2023-04-12T16:25:31.979Z,22.58
2023-04-12T16:28:06.744Z,23.70
2023-04-12T16:30:38.220Z,36.38
2023-04-12T16:33:09.494Z,30.63
2023-04-12T16:35:40.785Z,15.02
2023-04-12T16:38:15.844Z,12.50
2023-04-12T16:40:49.188Z,21.27
2023-04-12T16:43:20.469Z,14.25
2023-04-12T16:45:51.848Z,17.70
2023-04-12T16:48:24.094Z,27.10
2023-04-12T16:50:55.663Z,17.30
2023-04-12T16:53:26.566Z,18.77
2023-04-12T16:55:58.063Z,22.93
2023-04-12T16:58:30.301Z,19.88
2023-04-12T17:01:01.640Z,17.33
2023-04-12T17:03:33.182Z,17.45
2023-04-12T17:06:05.873Z,49.90
2023-04-12T17:08:37.122Z,14.50
2023-04-12T17:11:09.454Z,57.15
2023-04-12T17:13:40.831Z,48.15
2023-04-12T17:16:12.969Z,54.05
2023-04-12T17:18:44.981Z,56.13
2023-04-12T17:21:19.818Z,54.53
2023-04-12T17:23:51.702Z,44.65
2023-04-12T17:28:58.213Z,29.65
2023-04-12T17:34:02.588Z,19.85
2023-04-12T17:36:35.208Z,20.35
2023-04-12T17:39:06.607Z,52.97
2023-04-12T17:41:38.058Z,46.30
2023-04-12T17:44:09.444Z,26.17
2023-04-12T17:46:40.882Z,12.23
2023-04-12T17:49:11.820Z,12.90
2023-04-12T17:51:43.536Z,15.20
2023-04-12T17:54:14.737Z,20.50
2023-04-12T17:56:46.368Z,23.15
2023-04-12T17:59:17.502Z,33.85
2023-04-12T18:01:48.994Z,19.88
2023-04-12T18:04:20.377Z,18.83
2023-04-12T18:06:51.810Z,23.20
2023-04-12T18:09:23.228Z,19.23
2023-04-12T18:11:56.279Z,17.10
2023-04-12T18:14:28.133Z,33.85
2023-04-12T18:17:01.211Z,10.98
2023-04-12T18:19:33.457Z,25.42
2023-04-12T18:22:04.720Z,15.65
2023-04-12T18:24:37.287Z,10.75
2023-04-12T18:27:09.655Z,8.27
2023-04-12T18:29:40.588Z,18.63
2023-04-12T18:32:11.806Z,23.33
2023-04-12T18:34:43.214Z,11.82
2023-04-12T18:37:14.685Z,9.43
2023-04-12T18:39:47.434Z,7.30
2023-04-12T18:42:18.998Z,12.85
2023-04-12T18:44:50.317Z,19.15
2023-04-12T18:47:21.581Z,13.50
2023-04-12T18:49:52.653Z,11.98
2023-04-12T18:52:24.399Z,9.85
2023-04-12T18:54:56.219Z,9.57
2023-04-12T18:57:27.538Z,20.35
2023-04-12T18:59:59.082Z,15.43
2023-04-12T19:02:30.683Z,16.17
2023-04-12T19:05:02.200Z,21.77
2023-04-12T19:07:33.605Z,17.38
2023-04-12T19:10:07.155Z,18.98
2023-04-12T19:12:38.448Z,14.13
2023-04-12T19:15:10.368Z,18.75
2023-04-12T19:17:41.790Z,18.27
2023-04-12T19:20:13.124Z,11.63
2023-04-12T19:22:44.841Z,18.52
2023-04-12T19:25:18.930Z,19.52
2023-04-12T19:27:51.150Z,13.02
2023-04-12T19:30:22.694Z,16.40
2023-04-12T19:32:53.983Z,16.70
2023-04-12T19:35:25.527Z,134.35
2023-04-12T19:37:56.626Z,39.33
2023-04-12T19:40:29.882Z,11.27
2023-04-12T19:43:02.196Z,15.02
2023-04-12T19:45:33.784Z,9.10
2023-04-12T19:48:05.166Z,13.00
2023-04-12T19:50:37.505Z,14.82
2023-04-12T19:53:09.687Z,17.83
2023-04-12T19:55:43.491Z,13.48
2023-04-12T19:58:15.137Z,15.88
2023-04-12T20:03:18.230Z,28.38
2023-04-12T20:05:49.473Z,43.58
2023-04-12T20:08:20.600Z,21.13
2023-04-12T20:10:52.275Z,15.80
2023-04-12T20:13:26.494Z,22.45
2023-04-12T20:15:57.746Z,44.17
2023-04-12T20:18:29.355Z,11.68
2023-04-12T20:21:00.583Z,21.48
2023-04-12T20:23:33.541Z,33.42
2023-04-12T20:26:05.363Z,14.15
2023-04-12T20:31:07.808Z,10.45
2023-04-12T20:33:39.021Z,25.17
2023-04-12T20:36:12.094Z,15.30
2023-04-12T20:38:47.353Z,15.82
2023-04-12T20:41:19.060Z,18.83
2023-04-12T20:43:50.800Z,14.27
2023-04-12T20:46:27.064Z,11.45
2023-04-12T20:48:59.731Z,14.07
2023-04-12T20:51:31.057Z,17.40
2023-04-12T20:54:03.700Z,13.00
2023-04-12T20:56:35.165Z,13.68
2023-04-12T20:59:06.412Z,44.10
2023-04-12T21:01:37.854Z,10.30
2023-04-12T21:04:09.927Z,12.30
2023-04-12T21:06:41.020Z,8.35
2023-04-12T21:09:12.086Z,9.32
2023-04-12T21:11:44.785Z,9.10
2023-04-12T21:14:18.639Z,9.50
2023-04-12T21:16:52.611Z,13.10
2023-04-12T21:19:24.484Z,7.35
2023-04-12T21:21:56.035Z,8.05
2023-04-12T21:24:27.713Z,10.90
2023-04-12T21:26:59.389Z,12.82
2023-04-12T21:29:33.112Z,7.88
2023-04-12T21:32:07.145Z,10.68
2023-04-12T21:34:38.797Z,12.45
2023-04-12T21:37:10.562Z,8.02
2023-04-12T21:39:44.869Z,7.63
2023-04-12T21:42:15.762Z,12.10
2023-04-12T21:44:46.820Z,6.43
2023-04-12T21:47:18.110Z,9.30
2023-04-12T21:49:49.499Z,12.38
2023-04-12T21:52:21.089Z,10.55
2023-04-12T21:54:53.771Z,24.20
2023-04-12T21:57:25.381Z,10.88
2023-04-12T21:59:56.768Z,8.00
2023-04-12T22:02:28.772Z,10.10
2023-04-12T22:04:59.967Z,10.57
2023-04-12T22:07:31.113Z,8.73
2023-04-12T22:10:03.859Z,11.55
2023-04-12T22:12:35.440Z,9.05
2023-04-12T22:15:08.007Z,9.75
2023-04-12T22:17:40.128Z,11.02
2023-04-12T22:20:14.232Z,11.48
2023-04-12T22:22:46.550Z,11.35
2023-04-12T22:25:24.256Z,11.15
2023-04-12T22:27:59.187Z,11.20
2023-04-12T22:30:32.103Z,10.30
2023-04-12T22:33:03.497Z,9.10
2023-04-12T22:35:38.768Z,10.48
2023-04-12T22:38:10.766Z,13.10
2023-04-12T22:40:42.098Z,9.20
2023-04-12T22:43:19.515Z,11.13
2023-04-12T22:45:51.370Z,10.20
2023-04-12T22:48:26.448Z,10.07
2023-04-12T22:50:57.778Z,10.68
2023-04-12T22:53:29.582Z,10.63
2023-04-12T22:56:01.919Z,15.60
2023-04-12T22:58:33.310Z,10.93
2023-04-12T23:03:39.617Z,11.55
2023-04-12T23:06:14.157Z,9.00
2023-04-12T23:08:45.968Z,10.77
2023-04-12T23:11:17.150Z,12.77
2023-04-12T23:13:48.392Z,8.75
2023-04-12T23:18:51.341Z,13.00
2023-04-12T23:21:23.126Z,10.45
2023-04-12T23:26:26.235Z,9.02
2023-04-12T23:28:57.463Z,9.65
2023-04-12T23:34:00.010Z,11.82
2023-04-12T23:39:06.827Z,8.70
2023-04-12T23:41:38.256Z,9.30
2023-04-12T23:46:40.514Z,9.88
2023-04-12T23:49:11.609Z,10.90
2023-04-12T23:51:42.961Z,9.50
2023-04-12T23:54:14.212Z,11.75
2023-04-12T23:56:46.240Z,8.85
2023-04-12T23:59:17.708Z,8.88
